sensor_id;sensor_type;location;lat;lon;timestamp;P1;durP1;ratioP1;P2;durP2;ratioP2
86267;SDS011;76928;48.002;8.130;2024-03-02T00:01:30;1.85;;;1.75;;
86267;SDS011;76928;48.002;8.130;2024-03-02T00:03:57;1.70;;;1.60;;
86267;SDS011;76928;48.002;8.130;2024-03-02T00:06:24;1.80;;;1.70;;
86267;SDS011;76928;48.002;8.130;2024-03-02T00:08:50;1.67;;;1.58;;
86267;SDS011;76928;48.002;8.130;2024-03-02T00:11:18;1.80;;;1.70;;
86267;SDS011;76928;48.002;8.130;2024-03-02T00:13:45;1.70;;;1.60;;
86267;SDS011;76928;48.002;8.130;2024-03-02T00:16:12;1.87;;;1.77;;
86267;SDS011;76928;48.002;8.130;2024-03-02T00:18:39;1.70;;;1.60;;
86267;SDS011;76928;48.002;8.130;2024-03-02T00:21:06;1.42;;;1.33;;
86267;SDS011;76928;48.002;8.130;2024-03-02T00:23:39;1.70;;;1.60;;
86267;SDS011;76928;48.002;8.130;2024-03-02T00:26:06;1.50;;;1.40;;
86267;SDS011;76928;48.002;8.130;2024-03-02T00:28:35;1.50;;;1.40;;
86267;SDS011;76928;48.002;8.130;2024-03-02T00:33:41;1.50;;;1.40;;
86267;SDS011;76928;48.002;8.130;2024-03-02T00:36:16;1.40;;;1.30;;
86267;SDS011;76928;48.002;8.130;2024-03-02T00:38:51;1.42;;;1.33;;
86267;SDS011;76928;48.002;8.130;2024-03-02T00:44:15;1.40;;;1.30;;
86267;SDS011;76928;48.002;8.130;2024-03-02T00:46:42;1.30;;;1.20;;
86267;SDS011;76928;48.002;8.130;2024-03-02T00:49:13;1.30;;;1.20;;
86267;SDS011;76928;48.002;8.130;2024-03-02T00:51:51;1.30;;;1.20;;
86267;SDS011;76928;48.002;8.130;2024-03-02T00:54:23;1.30;;;1.20;;
86267;SDS011;76928;48.002;8.130;2024-03-02T00:56:52;2.03;;;1.27;;
86267;SDS011;76928;48.002;8.130;2024-03-02T00:59:21;1.20;;;1.20;;
86267;SDS011;76928;48.002;8.130;2024-03-02T01:01:49;1.20;;;1.10;;
86267;SDS011;76928;48.002;8.130;2024-03-02T01:04:16;1.30;;;1.20;;
86267;SDS011;76928;48.002;8.130;2024-03-02T01:06:43;1.20;;;1.10;;
86267;SDS011;76928;48.002;8.130;2024-03-02T01:09:10;1.07;;;1.00;;
86267;SDS011;76928;48.002;8.130;2024-03-02T01:11:38;1.33;;;1.23;;
86267;SDS011;76928;48.002;8.130;2024-03-02T01:14:05;1.35;;;1.25;;
86267;SDS011;76928;48.002;8.130;2024-03-02T01:16:32;1.20;;;1.10;;
86267;SDS011;76928;48.002;8.130;2024-03-02T01:18:58;1.25;;;1.15;;
86267;SDS011;76928;48.002;8.130;2024-03-02T01:21:25;1.02;;;1.02;;
86267;SDS011;76928;48.002;8.130;2024-03-02T01:23:52;1.20;;;1.10;;
86267;SDS011;76928;48.002;8.130;2024-03-02T01:26:19;1.10;;;1.00;;
86267;SDS011;76928;48.002;8.130;2024-03-02T01:28:46;1.48;;;1.13;;
86267;SDS011;76928;48.002;8.130;2024-03-02T01:31:13;1.00;;;1.00;;
86267;SDS011;76928;48.002;8.130;2024-03-02T01:33:40;1.20;;;1.10;;
86267;SDS011;76928;48.002;8.130;2024-03-02T01:36:06;1.00;;;1.00;;
86267;SDS011;76928;48.002;8.130;2024-03-02T01:38:34;1.00;;;1.00;;
86267;SDS011;76928;48.002;8.130;2024-03-02T01:41:01;1.15;;;1.05;;
86267;SDS011;76928;48.002;8.130;2024-03-02T01:43:28;0.95;;;0.90;;
86267;SDS011;76928;48.002;8.130;2024-03-02T01:45:55;0.98;;;0.98;;
86267;SDS011;76928;48.002;8.130;2024-03-02T01:48:22;1.00;;;1.00;;
86267;SDS011;76928;48.002;8.130;2024-03-02T01:50:49;0.90;;;0.90;;
86267;SDS011;76928;48.002;8.130;2024-03-02T01:53:16;1.10;;;1.00;;
86267;SDS011;76928;48.002;8.130;2024-03-02T01:55:43;1.00;;;1.00;;
86267;SDS011;76928;48.002;8.130;2024-03-02T01:58:09;1.00;;;1.00;;
86267;SDS011;76928;48.002;8.130;2024-03-02T02:00:37;1.00;;;1.00;;
86267;SDS011;76928;48.002;8.130;2024-03-02T02:03:03;1.20;;;1.00;;
86267;SDS011;76928;48.002;8.130;2024-03-02T02:05:30;1.08;;;0.98;;
86267;SDS011;76928;48.002;8.130;2024-03-02T02:07:57;1.10;;;1.00;;
86267;SDS011;76928;48.002;8.130;2024-03-02T02:10:24;0.90;;;0.90;;
86267;SDS011;76928;48.002;8.130;2024-03-02T02:13:10;1.00;;;1.00;;
86267;SDS011;76928;48.002;8.130;2024-03-02T02:15:37;0.90;;;0.90;;
86267;SDS011;76928;48.002;8.130;2024-03-02T02:18:04;0.90;;;0.90;;
86267;SDS011;76928;48.002;8.130;2024-03-02T02:20:31;0.98;;;0.98;;
86267;SDS011;76928;48.002;8.130;2024-03-02T02:23:01;0.90;;;0.90;;
86267;SDS011;76928;48.002;8.130;2024-03-02T02:25:31;0.80;;;0.80;;
86267;SDS011;76928;48.002;8.130;2024-03-02T02:27:58;0.83;;;0.83;;
86267;SDS011;76928;48.002;8.130;2024-03-02T02:30:28;1.00;;;1.00;;
86267;SDS011;76928;48.002;8.130;2024-03-02T02:32:57;1.17;;;1.08;;
86267;SDS011;76928;48.002;8.130;2024-03-02T02:35:24;1.00;;;0.90;;
86267;SDS011;76928;48.002;8.130;2024-03-02T02:37:52;1.10;;;1.00;;
86267;SDS011;76928;48.002;8.130;2024-03-02T02:40:20;0.90;;;0.90;;
86267;SDS011;76928;48.002;8.130;2024-03-02T02:42:47;1.17;;;0.90;;
86267;SDS011;76928;48.002;8.130;2024-03-02T02:45:14;1.13;;;1.07;;
86267;SDS011;76928;48.002;8.130;2024-03-02T02:47:41;1.00;;;0.90;;
86267;SDS011;76928;48.002;8.130;2024-03-02T02:50:09;1.07;;;0.97;;
86267;SDS011;76928;48.002;8.130;2024-03-02T02:52:37;0.90;;;0.90;;
86267;SDS011;76928;48.002;8.130;2024-03-02T02:55:07;0.80;;;0.80;;
86267;SDS011;76928;48.002;8.130;2024-03-02T02:57:39;1.10;;;1.00;;
86267;SDS011;76928;48.002;8.130;2024-03-02T03:00:08;1.10;;;0.80;;
86267;SDS011;76928;48.002;8.130;2024-03-02T03:02:40;0.98;;;0.90;;
86267;SDS011;76928;48.002;8.130;2024-03-02T03:05:11;1.03;;;0.93;;
86267;SDS011;76928;48.002;8.130;2024-03-02T03:07:40;0.80;;;0.80;;
86267;SDS011;76928;48.002;8.130;2024-03-02T03:10:07;0.80;;;0.80;;
86267;SDS011;76928;48.002;8.130;2024-03-02T03:12:34;0.90;;;0.90;;
86267;SDS011;76928;48.002;8.130;2024-03-02T03:15:02;1.17;;;0.95;;
86267;SDS011;76928;48.002;8.130;2024-03-02T03:17:30;0.80;;;0.80;;
86267;SDS011;76928;48.002;8.130;2024-03-02T03:19:57;1.38;;;0.90;;
86267;SDS011;76928;48.002;8.130;2024-03-02T03:22:24;1.05;;;0.90;;
86267;SDS011;76928;48.002;8.130;2024-03-02T03:24:50;1.00;;;0.90;;
86267;SDS011;76928;48.002;8.130;2024-03-02T03:27:17;0.90;;;0.77;;
86267;SDS011;76928;48.002;8.130;2024-03-02T03:29:45;1.00;;;0.80;;
86267;SDS011;76928;48.002;8.130;2024-03-02T03:32:12;0.95;;;0.90;;
86267;SDS011;76928;48.002;8.130;2024-03-02T03:34:39;0.90;;;0.90;;
86267;SDS011;76928;48.002;8.130;2024-03-02T03:37:06;0.80;;;0.80;;
86267;SDS011;76928;48.002;8.130;2024-03-02T03:39:33;1.00;;;0.90;;
86267;SDS011;76928;48.002;8.130;2024-03-02T03:42:02;0.80;;;0.80;;
86267;SDS011;76928;48.002;8.130;2024-03-02T03:44:29;0.90;;;0.90;;
86267;SDS011;76928;48.002;8.130;2024-03-02T03:46:56;0.90;;;0.77;;
86267;SDS011;76928;48.002;8.130;2024-03-02T03:49:22;0.80;;;0.80;;
86267;SDS011;76928;48.002;8.130;2024-03-02T03:51:49;0.70;;;0.70;;
86267;SDS011;76928;48.002;8.130;2024-03-02T03:54:16;0.80;;;0.80;;
86267;SDS011;76928;48.002;8.130;2024-03-02T03:56:43;1.10;;;0.80;;
86267;SDS011;76928;48.002;8.130;2024-03-02T03:59:09;0.70;;;0.70;;
86267;SDS011;76928;48.002;8.130;2024-03-02T04:01:37;0.90;;;0.80;;
86267;SDS011;76928;48.002;8.130;2024-03-02T04:04:03;0.70;;;0.70;;
86267;SDS011;76928;48.002;8.130;2024-03-02T04:06:30;0.80;;;0.70;;
86267;SDS011;76928;48.002;8.130;2024-03-02T04:08:57;0.80;;;0.77;;
86267;SDS011;76928;48.002;8.130;2024-03-02T04:11:24;0.90;;;0.80;;
86267;SDS011;76928;48.002;8.130;2024-03-02T04:13:51;0.80;;;0.80;;
86267;SDS011;76928;48.002;8.130;2024-03-02T04:16:18;0.70;;;0.70;;
86267;SDS011;76928;48.002;8.130;2024-03-02T04:18:44;0.70;;;0.70;;
86267;SDS011;76928;48.002;8.130;2024-03-02T04:21:11;0.80;;;0.70;;
86267;SDS011;76928;48.002;8.130;2024-03-02T04:23:38;0.77;;;0.77;;
86267;SDS011;76928;48.002;8.130;2024-03-02T04:26:05;0.70;;;0.70;;
86267;SDS011;76928;48.002;8.130;2024-03-02T04:28:31;0.70;;;0.70;;
86267;SDS011;76928;48.002;8.130;2024-03-02T04:30:58;0.77;;;0.77;;
86267;SDS011;76928;48.002;8.130;2024-03-02T04:33:25;0.70;;;0.70;;
86267;SDS011;76928;48.002;8.130;2024-03-02T04:35:52;0.70;;;0.70;;
86267;SDS011;76928;48.002;8.130;2024-03-02T04:38:19;0.70;;;0.70;;
86267;SDS011;76928;48.002;8.130;2024-03-02T04:40:45;0.70;;;0.70;;
86267;SDS011;76928;48.002;8.130;2024-03-02T04:43:12;0.70;;;0.70;;
86267;SDS011;76928;48.002;8.130;2024-03-02T04:45:42;0.60;;;0.60;;
86267;SDS011;76928;48.002;8.130;2024-03-02T04:48:09;0.60;;;0.60;;
86267;SDS011;76928;48.002;8.130;2024-03-02T04:50:35;1.02;;;0.70;;
86267;SDS011;76928;48.002;8.130;2024-03-02T04:53:02;0.60;;;0.60;;
86267;SDS011;76928;48.002;8.130;2024-03-02T04:55:29;0.70;;;0.70;;
86267;SDS011;76928;48.002;8.130;2024-03-02T04:58:05;0.77;;;0.77;;
86267;SDS011;76928;48.002;8.130;2024-03-02T05:00:34;0.70;;;0.70;;
86267;SDS011;76928;48.002;8.130;2024-03-02T05:03:01;0.80;;;0.80;;
86267;SDS011;76928;48.002;8.130;2024-03-02T05:05:29;0.70;;;0.70;;
86267;SDS011;76928;48.002;8.130;2024-03-02T05:07:56;0.70;;;0.70;;
86267;SDS011;76928;48.002;8.130;2024-03-02T05:10:22;0.63;;;0.63;;
86267;SDS011;76928;48.002;8.130;2024-03-02T05:12:50;0.70;;;0.70;;
86267;SDS011;76928;48.002;8.130;2024-03-02T05:15:23;0.80;;;0.80;;
86267;SDS011;76928;48.002;8.130;2024-03-02T05:17:49;0.70;;;0.68;;
86267;SDS011;76928;48.002;8.130;2024-03-02T05:20:16;0.80;;;0.80;;
86267;SDS011;76928;48.002;8.130;2024-03-02T05:22:43;0.70;;;0.70;;
86267;SDS011;76928;48.002;8.130;2024-03-02T05:25:10;0.80;;;0.80;;
86267;SDS011;76928;48.002;8.130;2024-03-02T05:27:37;0.70;;;0.70;;
86267;SDS011;76928;48.002;8.130;2024-03-02T05:30:03;0.73;;;0.70;;
86267;SDS011;76928;48.002;8.130;2024-03-02T05:32:33;0.60;;;0.60;;
86267;SDS011;76928;48.002;8.130;2024-03-02T05:35:00;0.70;;;0.70;;
86267;SDS011;76928;48.002;8.130;2024-03-02T05:37:26;0.68;;;0.68;;
86267;SDS011;76928;48.002;8.130;2024-03-02T05:39:54;0.68;;;0.68;;
86267;SDS011;76928;48.002;8.130;2024-03-02T05:42:21;0.93;;;0.70;;
86267;SDS011;76928;48.002;8.130;2024-03-02T05:44:47;0.65;;;0.65;;
86267;SDS011;76928;48.002;8.130;2024-03-02T05:47:14;0.73;;;0.73;;
86267;SDS011;76928;48.002;8.130;2024-03-02T05:49:41;0.67;;;0.67;;
86267;SDS011;76928;48.002;8.130;2024-03-02T05:52:09;0.80;;;0.80;;
86267;SDS011;76928;48.002;8.130;2024-03-02T05:54:36;0.60;;;0.60;;
86267;SDS011;76928;48.002;8.130;2024-03-02T05:57:03;0.70;;;0.70;;
86267;SDS011;76928;48.002;8.130;2024-03-02T05:59:43;0.70;;;0.70;;
86267;SDS011;76928;48.002;8.130;2024-03-02T06:02:09;0.90;;;0.67;;
86267;SDS011;76928;48.002;8.130;2024-03-02T06:04:36;0.70;;;0.70;;
86267;SDS011;76928;48.002;8.130;2024-03-02T06:07:03;0.70;;;0.70;;
86267;SDS011;76928;48.002;8.130;2024-03-02T06:09:30;0.77;;;0.70;;
86267;SDS011;76928;48.002;8.130;2024-03-02T06:11:56;0.60;;;0.60;;
86267;SDS011;76928;48.002;8.130;2024-03-02T06:14:23;0.60;;;0.60;;
86267;SDS011;76928;48.002;8.130;2024-03-02T06:16:50;0.70;;;0.70;;
86267;SDS011;76928;48.002;8.130;2024-03-02T06:19:17;0.73;;;0.70;;
86267;SDS011;76928;48.002;8.130;2024-03-02T06:21:43;0.70;;;0.70;;
86267;SDS011;76928;48.002;8.130;2024-03-02T06:24:10;0.80;;;0.80;;
86267;SDS011;76928;48.002;8.130;2024-03-02T06:26:37;0.70;;;0.70;;
86267;SDS011;76928;48.002;8.130;2024-03-02T06:29:05;0.83;;;0.70;;
86267;SDS011;76928;48.002;8.130;2024-03-02T06:31:32;0.70;;;0.60;;
86267;SDS011;76928;48.002;8.130;2024-03-02T06:33:58;0.65;;;0.65;;
86267;SDS011;76928;48.002;8.130;2024-03-02T06:36:25;0.70;;;0.70;;
86267;SDS011;76928;48.002;8.130;2024-03-02T06:38:52;0.52;;;0.52;;
86267;SDS011;76928;48.002;8.130;2024-03-02T06:41:19;1.20;;;0.70;;
86267;SDS011;76928;48.002;8.130;2024-03-02T06:43:45;0.57;;;0.57;;
86267;SDS011;76928;48.002;8.130;2024-03-02T06:46:12;0.60;;;0.60;;
86267;SDS011;76928;48.002;8.130;2024-03-02T06:48:40;0.60;;;0.60;;
86267;SDS011;76928;48.002;8.130;2024-03-02T06:51:07;0.60;;;0.60;;
86267;SDS011;76928;48.002;8.130;2024-03-02T06:53:34;0.60;;;0.60;;
86267;SDS011;76928;48.002;8.130;2024-03-02T06:56:01;0.50;;;0.50;;
86267;SDS011;76928;48.002;8.130;2024-03-02T06:58:27;0.73;;;0.70;;
86267;SDS011;76928;48.002;8.130;2024-03-02T07:00:56;0.63;;;0.60;;
86267;SDS011;76928;48.002;8.130;2024-03-02T07:03:23;0.60;;;0.60;;
86267;SDS011;76928;48.002;8.130;2024-03-02T07:05:50;0.50;;;0.50;;
86267;SDS011;76928;48.002;8.130;2024-03-02T07:08:17;0.60;;;0.60;;
86267;SDS011;76928;48.002;8.130;2024-03-02T07:10:43;0.60;;;0.60;;
86267;SDS011;76928;48.002;8.130;2024-03-02T07:13:10;0.60;;;0.60;;
86267;SDS011;76928;48.002;8.130;2024-03-02T07:15:37;0.60;;;0.60;;
86267;SDS011;76928;48.002;8.130;2024-03-02T07:18:30;0.63;;;0.60;;
86267;SDS011;76928;48.002;8.130;2024-03-02T07:20:57;0.70;;;0.70;;
86267;SDS011;76928;48.002;8.130;2024-03-02T07:23:25;0.63;;;0.63;;
86267;SDS011;76928;48.002;8.130;2024-03-02T07:25:53;0.70;;;0.70;;
86267;SDS011;76928;48.002;8.130;2024-03-02T07:28:22;0.90;;;0.75;;
86267;SDS011;76928;48.002;8.130;2024-03-02T07:33:30;0.80;;;0.70;;
86267;SDS011;76928;48.002;8.130;2024-03-02T07:35:57;0.77;;;0.70;;
86267;SDS011;76928;48.002;8.130;2024-03-02T07:38:26;0.68;;;0.68;;
86267;SDS011;76928;48.002;8.130;2024-03-02T07:40:54;0.63;;;0.60;;
86267;SDS011;76928;48.002;8.130;2024-03-02T07:43:21;0.70;;;0.70;;
86267;SDS011;76928;48.002;8.130;2024-03-02T07:45:48;0.80;;;0.70;;
86267;SDS011;76928;48.002;8.130;2024-03-02T07:48:15;0.60;;;0.60;;
86267;SDS011;76928;48.002;8.130;2024-03-02T07:50:42;0.60;;;0.60;;
86267;SDS011;76928;48.002;8.130;2024-03-02T07:53:09;0.70;;;0.70;;
86267;SDS011;76928;48.002;8.130;2024-03-02T07:55:36;0.63;;;0.63;;
86267;SDS011;76928;48.002;8.130;2024-03-02T07:58:03;0.60;;;0.60;;
86267;SDS011;76928;48.002;8.130;2024-03-02T08:00:30;0.70;;;0.70;;
86267;SDS011;76928;48.002;8.130;2024-03-02T08:02:56;0.60;;;0.60;;
86267;SDS011;76928;48.002;8.130;2024-03-02T08:05:23;0.70;;;0.70;;
86267;SDS011;76928;48.002;8.130;2024-03-02T08:07:50;0.68;;;0.68;;
86267;SDS011;76928;48.002;8.130;2024-03-02T08:10:20;0.70;;;0.70;;
86267;SDS011;76928;48.002;8.130;2024-03-02T08:12:47;0.70;;;0.70;;
86267;SDS011;76928;48.002;8.130;2024-03-02T08:15:14;0.60;;;0.60;;
86267;SDS011;76928;48.002;8.130;2024-03-02T08:17:40;0.63;;;0.63;;
86267;SDS011;76928;48.002;8.130;2024-03-02T08:20:16;0.60;;;0.60;;
86267;SDS011;76928;48.002;8.130;2024-03-02T08:22:43;0.70;;;0.70;;
86267;SDS011;76928;48.002;8.130;2024-03-02T08:25:11;0.70;;;0.70;;
86267;SDS011;76928;48.002;8.130;2024-03-02T08:27:38;0.60;;;0.60;;
86267;SDS011;76928;48.002;8.130;2024-03-02T08:30:06;0.60;;;0.60;;
86267;SDS011;76928;48.002;8.130;2024-03-02T08:32:34;0.60;;;0.60;;
86267;SDS011;76928;48.002;8.130;2024-03-02T08:35:01;1.02;;;0.60;;
86267;SDS011;76928;48.002;8.130;2024-03-02T08:37:28;0.60;;;0.60;;
86267;SDS011;76928;48.002;8.130;2024-03-02T08:39:54;0.90;;;0.60;;
86267;SDS011;76928;48.002;8.130;2024-03-02T08:42:21;0.50;;;0.50;;
86267;SDS011;76928;48.002;8.130;2024-03-02T08:44:49;0.80;;;0.60;;
86267;SDS011;76928;48.002;8.130;2024-03-02T08:47:16;0.70;;;0.50;;
86267;SDS011;76928;48.002;8.130;2024-03-02T08:49:43;1.50;;;0.70;;
86267;SDS011;76928;48.002;8.130;2024-03-02T08:52:09;0.80;;;0.60;;
86267;SDS011;76928;48.002;8.130;2024-03-02T08:54:36;0.95;;;0.60;;
86267;SDS011;76928;48.002;8.130;2024-03-02T08:57:03;1.00;;;0.60;;
86267;SDS011;76928;48.002;8.130;2024-03-02T08:59:31;1.07;;;0.97;;
86267;SDS011;76928;48.002;8.130;2024-03-02T09:01:58;0.95;;;0.70;;
86267;SDS011;76928;48.002;8.130;2024-03-02T09:04:25;1.00;;;0.60;;
86267;SDS011;76928;48.002;8.130;2024-03-02T09:06:52;0.70;;;0.60;;
86267;SDS011;76928;48.002;8.130;2024-03-02T09:09:19;0.60;;;0.60;;
86267;SDS011;76928;48.002;8.130;2024-03-02T09:11:46;1.53;;;0.60;;
86267;SDS011;76928;48.002;8.130;2024-03-02T09:14:13;0.70;;;0.60;;
86267;SDS011;76928;48.002;8.130;2024-03-02T09:16:41;1.48;;;0.60;;
86267;SDS011;76928;48.002;8.130;2024-03-02T09:19:08;0.60;;;0.60;;
86267;SDS011;76928;48.002;8.130;2024-03-02T09:21:36;1.30;;;0.68;;
86267;SDS011;76928;48.002;8.130;2024-03-02T09:24:03;0.60;;;0.60;;
86267;SDS011;76928;48.002;8.130;2024-03-02T09:26:30;1.00;;;0.70;;
86267;SDS011;76928;48.002;8.130;2024-03-02T09:28:56;0.67;;;0.60;;
86267;SDS011;76928;48.002;8.130;2024-03-02T09:31:23;0.85;;;0.63;;
86267;SDS011;76928;48.002;8.130;2024-03-02T09:33:50;0.75;;;0.52;;
86267;SDS011;76928;48.002;8.130;2024-03-02T09:36:17;1.52;;;0.60;;
86267;SDS011;76928;48.002;8.130;2024-03-02T09:38:45;0.60;;;0.60;;
86267;SDS011;76928;48.002;8.130;2024-03-02T09:41:12;1.10;;;0.63;;
86267;SDS011;76928;48.002;8.130;2024-03-02T09:43:39;0.60;;;0.60;;
86267;SDS011;76928;48.002;8.130;2024-03-02T09:46:08;0.60;;;0.60;;
86267;SDS011;76928;48.002;8.130;2024-03-02T09:48:36;1.10;;;0.70;;
86267;SDS011;76928;48.002;8.130;2024-03-02T09:51:04;2.57;;;0.60;;
86267;SDS011;76928;48.002;8.130;2024-03-02T09:53:32;0.50;;;0.50;;
86267;SDS011;76928;48.002;8.130;2024-03-02T09:56:00;0.68;;;0.68;;
86267;SDS011;76928;48.002;8.130;2024-03-02T09:58:27;0.63;;;0.60;;
86267;SDS011;76928;48.002;8.130;2024-03-02T10:00:54;0.60;;;0.50;;
86267;SDS011;76928;48.002;8.130;2024-03-02T10:03:22;0.65;;;0.60;;
86267;SDS011;76928;48.002;8.130;2024-03-02T10:05:50;0.60;;;0.60;;
86267;SDS011;76928;48.002;8.130;2024-03-02T10:08:17;0.90;;;0.70;;
86267;SDS011;76928;48.002;8.130;2024-03-02T10:10:44;0.57;;;0.57;;
86267;SDS011;76928;48.002;8.130;2024-03-02T10:13:12;0.60;;;0.52;;
86267;SDS011;76928;48.002;8.130;2024-03-02T10:15:40;0.60;;;0.60;;
86267;SDS011;76928;48.002;8.130;2024-03-02T10:18:11;0.73;;;0.73;;
86267;SDS011;76928;48.002;8.130;2024-03-02T10:20:39;1.00;;;0.60;;
86267;SDS011;76928;48.002;8.130;2024-03-02T10:23:12;0.80;;;0.50;;
86267;SDS011;76928;48.002;8.130;2024-03-02T10:25:40;0.60;;;0.60;;
86267;SDS011;76928;48.002;8.130;2024-03-02T10:28:08;0.70;;;0.70;;
86267;SDS011;76928;48.002;8.130;2024-03-02T10:30:35;0.60;;;0.60;;
86267;SDS011;76928;48.002;8.130;2024-03-02T10:33:02;0.73;;;0.73;;
86267;SDS011;76928;48.002;8.130;2024-03-02T10:35:32;0.80;;;0.80;;
86267;SDS011;76928;48.002;8.130;2024-03-02T10:38:03;0.60;;;0.60;;
86267;SDS011;76928;48.002;8.130;2024-03-02T10:40:31;0.60;;;0.60;;
86267;SDS011;76928;48.002;8.130;2024-03-02T10:42:58;0.60;;;0.60;;
86267;SDS011;76928;48.002;8.130;2024-03-02T10:45:27;0.63;;;0.63;;
86267;SDS011;76928;48.002;8.130;2024-03-02T10:47:55;1.00;;;0.60;;
86267;SDS011;76928;48.002;8.130;2024-03-02T10:50:23;0.60;;;0.60;;
86267;SDS011;76928;48.002;8.130;2024-03-02T10:52:50;0.68;;;0.68;;
86267;SDS011;76928;48.002;8.130;2024-03-02T10:55:17;0.70;;;0.70;;
86267;SDS011;76928;48.002;8.130;2024-03-02T10:57:51;0.60;;;0.60;;
86267;SDS011;76928;48.002;8.130;2024-03-02T11:00:20;0.60;;;0.60;;
86267;SDS011;76928;48.002;8.130;2024-03-02T11:02:55;0.60;;;0.60;;
86267;SDS011;76928;48.002;8.130;2024-03-02T11:08:08;0.60;;;0.60;;
86267;SDS011;76928;48.002;8.130;2024-03-02T11:10:50;0.70;;;0.63;;
86267;SDS011;76928;48.002;8.130;2024-03-02T11:13:22;0.60;;;0.60;;
86267;SDS011;76928;48.002;8.130;2024-03-02T11:15:59;0.55;;;0.55;;
86267;SDS011;76928;48.002;8.130;2024-03-02T11:18:36;0.55;;;0.55;;
86267;SDS011;76928;48.002;8.130;2024-03-02T11:21:04;0.60;;;0.60;;
86267;SDS011;76928;48.002;8.130;2024-03-02T11:23:31;0.80;;;0.70;;
86267;SDS011;76928;48.002;8.130;2024-03-02T11:26:18;0.70;;;0.70;;
86267;SDS011;76928;48.002;8.130;2024-03-02T11:28:49;0.50;;;0.50;;
86267;SDS011;76928;48.002;8.130;2024-03-02T11:31:16;0.55;;;0.55;;
86267;SDS011;76928;48.002;8.130;2024-03-02T11:33:42;0.60;;;0.60;;
86267;SDS011;76928;48.002;8.130;2024-03-02T11:36:09;0.60;;;0.60;;
86267;SDS011;76928;48.002;8.130;2024-03-02T11:38:36;0.60;;;0.60;;
86267;SDS011;76928;48.002;8.130;2024-03-02T11:41:05;0.60;;;0.60;;
86267;SDS011;76928;48.002;8.130;2024-03-02T11:43:36;0.60;;;0.60;;
86267;SDS011;76928;48.002;8.130;2024-03-02T11:46:05;0.70;;;0.70;;
86267;SDS011;76928;48.002;8.130;2024-03-02T11:48:35;0.50;;;0.50;;
86267;SDS011;76928;48.002;8.130;2024-03-02T11:51:04;0.80;;;0.70;;
86267;SDS011;76928;48.002;8.130;2024-03-02T11:53:31;0.60;;;0.60;;
86267;SDS011;76928;48.002;8.130;2024-03-02T11:56:00;0.60;;;0.60;;
86267;SDS011;76928;48.002;8.130;2024-03-02T11:58:28;0.90;;;0.90;;
86267;SDS011;76928;48.002;8.130;2024-03-02T12:00:55;0.70;;;0.70;;
86267;SDS011;76928;48.002;8.130;2024-03-02T12:03:22;0.60;;;0.60;;
86267;SDS011;76928;48.002;8.130;2024-03-02T12:05:55;0.63;;;0.63;;
86267;SDS011;76928;48.002;8.130;2024-03-02T12:08:21;0.70;;;0.60;;
86267;SDS011;76928;48.002;8.130;2024-03-02T12:10:56;0.60;;;0.60;;
86267;SDS011;76928;48.002;8.130;2024-03-02T12:13:24;0.60;;;0.60;;
86267;SDS011;76928;48.002;8.130;2024-03-02T12:15:53;0.50;;;0.50;;
86267;SDS011;76928;48.002;8.130;2024-03-02T12:18:22;0.60;;;0.60;;
86267;SDS011;76928;48.002;8.130;2024-03-02T12:20:49;0.60;;;0.60;;
86267;SDS011;76928;48.002;8.130;2024-03-02T12:23:23;0.50;;;0.50;;
86267;SDS011;76928;48.002;8.130;2024-03-02T12:25:50;0.60;;;0.60;;
86267;SDS011;76928;48.002;8.130;2024-03-02T12:28:17;0.50;;;0.50;;
86267;SDS011;76928;48.002;8.130;2024-03-02T12:30:43;0.60;;;0.60;;
86267;SDS011;76928;48.002;8.130;2024-03-02T12:33:11;1.00;;;0.67;;
86267;SDS011;76928;48.002;8.130;2024-03-02T12:35:38;0.70;;;0.70;;
86267;SDS011;76928;48.002;8.130;2024-03-02T12:38:05;0.50;;;0.50;;
86267;SDS011;76928;48.002;8.130;2024-03-02T12:40:32;0.60;;;0.53;;
86267;SDS011;76928;48.002;8.130;2024-03-02T12:42:59;0.60;;;0.60;;
86267;SDS011;76928;48.002;8.130;2024-03-02T12:45:25;0.50;;;0.50;;
86267;SDS011;76928;48.002;8.130;2024-03-02T12:47:53;0.75;;;0.70;;
86267;SDS011;76928;48.002;8.130;2024-03-02T12:50:20;0.63;;;0.63;;
86267;SDS011;76928;48.002;8.130;2024-03-02T12:52:51;0.50;;;0.50;;
86267;SDS011;76928;48.002;8.130;2024-03-02T12:55:21;0.60;;;0.60;;
86267;SDS011;76928;48.002;8.130;2024-03-02T12:57:52;0.52;;;0.52;;
86267;SDS011;76928;48.002;8.130;2024-03-02T13:00:19;0.40;;;0.40;;
86267;SDS011;76928;48.002;8.130;2024-03-02T13:02:47;0.60;;;0.60;;
86267;SDS011;76928;48.002;8.130;2024-03-02T13:05:17;0.60;;;0.60;;
86267;SDS011;76928;48.002;8.130;2024-03-02T13:07:43;0.50;;;0.50;;
86267;SDS011;76928;48.002;8.130;2024-03-02T13:10:13;0.60;;;0.60;;
86267;SDS011;76928;48.002;8.130;2024-03-02T13:12:40;0.50;;;0.50;;
86267;SDS011;76928;48.002;8.130;2024-03-02T13:15:08;0.70;;;0.68;;
86267;SDS011;76928;48.002;8.130;2024-03-02T13:17:35;0.50;;;0.50;;
86267;SDS011;76928;48.002;8.130;2024-03-02T13:20:02;0.60;;;0.60;;
86267;SDS011;76928;48.002;8.130;2024-03-02T13:22:31;0.55;;;0.55;;
86267;SDS011;76928;48.002;8.130;2024-03-02T13:24:58;0.70;;;0.70;;
86267;SDS011;76928;48.002;8.130;2024-03-02T13:27:27;0.50;;;0.50;;
86267;SDS011;76928;48.002;8.130;2024-03-02T13:29:54;0.50;;;0.50;;
86267;SDS011;76928;48.002;8.130;2024-03-02T13:32:20;0.60;;;0.60;;
86267;SDS011;76928;48.002;8.130;2024-03-02T13:34:49;0.57;;;0.57;;
86267;SDS011;76928;48.002;8.130;2024-03-02T13:37:16;0.50;;;0.50;;
86267;SDS011;76928;48.002;8.130;2024-03-02T13:39:43;0.60;;;0.60;;
86267;SDS011;76928;48.002;8.130;2024-03-02T13:42:10;0.52;;;0.52;;
86267;SDS011;76928;48.002;8.130;2024-03-02T13:44:40;0.55;;;0.55;;
86267;SDS011;76928;48.002;8.130;2024-03-02T13:47:11;0.50;;;0.50;;
86267;SDS011;76928;48.002;8.130;2024-03-02T13:49:38;0.60;;;0.60;;
86267;SDS011;76928;48.002;8.130;2024-03-02T13:52:09;0.50;;;0.50;;
86267;SDS011;76928;48.002;8.130;2024-03-02T13:54:37;0.60;;;0.60;;
86267;SDS011;76928;48.002;8.130;2024-03-02T13:57:05;0.50;;;0.50;;
86267;SDS011;76928;48.002;8.130;2024-03-02T13:59:34;0.83;;;0.60;;
86267;SDS011;76928;48.002;8.130;2024-03-02T14:02:01;0.60;;;0.60;;
86267;SDS011;76928;48.002;8.130;2024-03-02T14:04:32;0.50;;;0.50;;
86267;SDS011;76928;48.002;8.130;2024-03-02T14:07:00;0.50;;;0.50;;
86267;SDS011;76928;48.002;8.130;2024-03-02T14:09:27;0.50;;;0.50;;
86267;SDS011;76928;48.002;8.130;2024-03-02T14:11:54;0.60;;;0.60;;
86267;SDS011;76928;48.002;8.130;2024-03-02T14:14:22;0.50;;;0.50;;
86267;SDS011;76928;48.002;8.130;2024-03-02T14:16:49;0.55;;;0.55;;
86267;SDS011;76928;48.002;8.130;2024-03-02T14:19:16;0.60;;;0.60;;
86267;SDS011;76928;48.002;8.130;2024-03-02T14:21:43;0.60;;;0.60;;
86267;SDS011;76928;48.002;8.130;2024-03-02T14:24:09;0.60;;;0.60;;
86267;SDS011;76928;48.002;8.130;2024-03-02T14:26:36;0.50;;;0.50;;
86267;SDS011;76928;48.002;8.130;2024-03-02T14:29:03;0.50;;;0.50;;
86267;SDS011;76928;48.002;8.130;2024-03-02T14:31:31;0.57;;;0.57;;
86267;SDS011;76928;48.002;8.130;2024-03-02T14:33:58;0.50;;;0.50;;
86267;SDS011;76928;48.002;8.130;2024-03-02T14:36:25;0.47;;;0.47;;
86267;SDS011;76928;48.002;8.130;2024-03-02T14:38:53;0.50;;;0.50;;
86267;SDS011;76928;48.002;8.130;2024-03-02T14:41:20;0.50;;;0.50;;
86267;SDS011;76928;48.002;8.130;2024-03-02T14:43:47;0.50;;;0.50;;
86267;SDS011;76928;48.002;8.130;2024-03-02T14:46:15;0.50;;;0.50;;
86267;SDS011;76928;48.002;8.130;2024-03-02T14:48:43;0.50;;;0.50;;
86267;SDS011;76928;48.002;8.130;2024-03-02T14:51:11;0.50;;;0.50;;
86267;SDS011;76928;48.002;8.130;2024-03-02T14:53:39;0.60;;;0.60;;
86267;SDS011;76928;48.002;8.130;2024-03-02T14:56:06;0.60;;;0.60;;
86267;SDS011;76928;48.002;8.130;2024-03-02T14:58:33;0.57;;;0.50;;
86267;SDS011;76928;48.002;8.130;2024-03-02T15:01:01;0.52;;;0.52;;
86267;SDS011;76928;48.002;8.130;2024-03-02T15:03:30;0.50;;;0.50;;